sensor_id;sensor_type;location;lat;lon;timestamp;temperature;humidity
19281;DHT22;9774;52.034;5.342;2023-10-19T00:00:14;15.20;65.20
19281;DHT22;9774;52.034;5.342;2023-10-19T00:02:49;15.20;65.20
19281;DHT22;9774;52.034;5.342;2023-10-19T00:05:20;15.20;65.20
19281;DHT22;9774;52.034;5.342;2023-10-19T00:07:48;15.20;65.10
19281;DHT22;9774;52.034;5.342;2023-10-19T00:10:15;15.30;65.30
19281;DHT22;9774;52.034;5.342;2023-10-19T00:12:43;15.30;65.20
19281;DHT22;9774;52.034;5.342;2023-10-19T00:15:10;15.30;65.20
19281;DHT22;9774;52.034;5.342;2023-10-19T00:17:39;15.30;65.20
19281;DHT22;9774;52.034;5.342;2023-10-19T00:20:10;15.40;65.40
19281;DHT22;9774;52.034;5.342;2023-10-19T00:22:52;15.40;65.30
19281;DHT22;9774;52.034;5.342;2023-10-19T00:25:20;15.40;65.40
19281;DHT22;9774;52.034;5.342;2023-10-19T00:27:49;15.40;65.40
19281;DHT22;9774;52.034;5.342;2023-10-19T00:30:17;15.40;65.40
19281;DHT22;9774;52.034;5.342;2023-10-19T00:32:49;15.40;65.50
19281;DHT22;9774;52.034;5.342;2023-10-19T00:35:18;15.50;65.60
19281;DHT22;9774;52.034;5.342;2023-10-19T00:37:56;15.50;66.20
19281;DHT22;9774;52.034;5.342;2023-10-19T00:40:43;15.60;65.80
19281;DHT22;9774;52.034;5.342;2023-10-19T00:43:26;15.60;65.60
19281;DHT22;9774;52.034;5.342;2023-10-19T00:45:58;15.60;65.80
19281;DHT22;9774;52.034;5.342;2023-10-19T00:48:27;15.60;65.60
19281;DHT22;9774;52.034;5.342;2023-10-19T00:50:54;15.60;65.70
19281;DHT22;9774;52.034;5.342;2023-10-19T00:53:34;15.60;65.80
19281;DHT22;9774;52.034;5.342;2023-10-19T00:56:05;15.70;66.00
19281;DHT22;9774;52.034;5.342;2023-10-19T00:58:35;15.70;65.90
19281;DHT22;9774;52.034;5.342;2023-10-19T01:01:05;15.70;66.00
19281;DHT22;9774;52.034;5.342;2023-10-19T01:03:33;15.80;66.00
19281;DHT22;9774;52.034;5.342;2023-10-19T01:06:04;15.80;66.00
19281;DHT22;9774;52.034;5.342;2023-10-19T01:08:40;15.80;66.10
19281;DHT22;9774;52.034;5.342;2023-10-19T01:11:11;15.90;66.20
19281;DHT22;9774;52.034;5.342;2023-10-19T01:13:41;15.90;66.20
19281;DHT22;9774;52.034;5.342;2023-10-19T01:16:12;15.90;66.20
19281;DHT22;9774;52.034;5.342;2023-10-19T01:18:47;15.90;66.20
19281;DHT22;9774;52.034;5.342;2023-10-19T01:21:19;16.00;66.90
19281;DHT22;9774;52.034;5.342;2023-10-19T01:23:54;16.00;66.20
19281;DHT22;9774;52.034;5.342;2023-10-19T01:26:21;16.00;66.20
19281;DHT22;9774;52.034;5.342;2023-10-19T01:28:51;16.00;66.20
19281;DHT22;9774;52.034;5.342;2023-10-19T01:31:24;16.00;66.20
19281;DHT22;9774;52.034;5.342;2023-10-19T01:33:58;16.10;66.30
19281;DHT22;9774;52.034;5.342;2023-10-19T01:36:31;16.10;66.30
19281;DHT22;9774;52.034;5.342;2023-10-19T01:39:04;16.10;66.30
19281;DHT22;9774;52.034;5.342;2023-10-19T01:41:35;16.20;66.40
19281;DHT22;9774;52.034;5.342;2023-10-19T01:44:02;16.20;66.40
19281;DHT22;9774;52.034;5.342;2023-10-19T01:46:30;16.20;67.20
19281;DHT22;9774;52.034;5.342;2023-10-19T01:49:00;16.20;66.50
19281;DHT22;9774;52.034;5.342;2023-10-19T01:51:29;16.30;66.60
19281;DHT22;9774;52.034;5.342;2023-10-19T01:53:58;16.30;66.60
19281;DHT22;9774;52.034;5.342;2023-10-19T01:56:27;16.30;66.60
19281;DHT22;9774;52.034;5.342;2023-10-19T01:58:55;16.30;66.70
19281;DHT22;9774;52.034;5.342;2023-10-19T02:01:22;16.40;66.80
19281;DHT22;9774;52.034;5.342;2023-10-19T02:03:56;16.40;66.80
19281;DHT22;9774;52.034;5.342;2023-10-19T02:06:25;16.40;66.80
19281;DHT22;9774;52.034;5.342;2023-10-19T02:08:55;16.50;67.00
19281;DHT22;9774;52.034;5.342;2023-10-19T02:11:27;16.50;67.00
19281;DHT22;9774;52.034;5.342;2023-10-19T02:13:56;16.50;67.10
19281;DHT22;9774;52.034;5.342;2023-10-19T02:16:26;16.50;67.10
19281;DHT22;9774;52.034;5.342;2023-10-19T02:18:55;16.60;67.20
19281;DHT22;9774;52.034;5.342;2023-10-19T02:21:21;16.60;67.20
19281;DHT22;9774;52.034;5.342;2023-10-19T02:23:52;16.60;67.20
19281;DHT22;9774;52.034;5.342;2023-10-19T02:26:19;16.70;67.20
19281;DHT22;9774;52.034;5.342;2023-10-19T02:28:49;16.70;67.20
19281;DHT22;9774;52.034;5.342;2023-10-19T02:31:17;16.80;67.20
19281;DHT22;9774;52.034;5.342;2023-10-19T02:33:47;16.80;67.30
19281;DHT22;9774;52.034;5.342;2023-10-19T02:36:17;16.80;67.30
19281;DHT22;9774;52.034;5.342;2023-10-19T02:38:46;16.90;67.40
19281;DHT22;9774;52.034;5.342;2023-10-19T02:41:14;16.90;67.40
19281;DHT22;9774;52.034;5.342;2023-10-19T02:43:43;16.90;67.50
19281;DHT22;9774;52.034;5.342;2023-10-19T02:46:13;17.00;67.60
19281;DHT22;9774;52.034;5.342;2023-10-19T02:48:42;17.00;67.60
19281;DHT22;9774;52.034;5.342;2023-10-19T02:51:10;17.00;67.60
19281;DHT22;9774;52.034;5.342;2023-10-19T02:53:38;17.10;67.50
19281;DHT22;9774;52.034;5.342;2023-10-19T02:56:12;17.10;67.60
19281;DHT22;9774;52.034;5.342;2023-10-19T02:58:42;17.10;67.70
19281;DHT22;9774;52.034;5.342;2023-10-19T03:01:18;17.20;67.50
19281;DHT22;9774;52.034;5.342;2023-10-19T03:03:50;17.20;67.70
19281;DHT22;9774;52.034;5.342;2023-10-19T03:06:18;17.20;67.40
19281;DHT22;9774;52.034;5.342;2023-10-19T03:08:47;17.20;68.20
19281;DHT22;9774;52.034;5.342;2023-10-19T03:11:13;17.30;67.50
19281;DHT22;9774;52.034;5.342;2023-10-19T03:13:41;17.30;67.50
19281;DHT22;9774;52.034;5.342;2023-10-19T03:16:09;17.30;67.50
19281;DHT22;9774;52.034;5.342;2023-10-19T03:18:38;17.30;67.50
19281;DHT22;9774;52.034;5.342;2023-10-19T03:21:04;17.40;67.60
19281;DHT22;9774;52.034;5.342;2023-10-19T03:23:31;17.40;67.70
19281;DHT22;9774;52.034;5.342;2023-10-19T03:26:00;17.40;67.70
19281;DHT22;9774;52.034;5.342;2023-10-19T03:28:45;17.40;67.70
19281;DHT22;9774;52.034;5.342;2023-10-19T03:31:20;17.40;67.60
19281;DHT22;9774;52.034;5.342;2023-10-19T03:33:49;17.50;67.60
19281;DHT22;9774;52.034;5.342;2023-10-19T03:36:20;17.50;67.70
19281;DHT22;9774;52.034;5.342;2023-10-19T03:38:48;17.50;67.60
19281;DHT22;9774;52.034;5.342;2023-10-19T03:41:16;17.50;67.70
19281;DHT22;9774;52.034;5.342;2023-10-19T03:43:47;17.60;67.80
19281;DHT22;9774;52.034;5.342;2023-10-19T03:46:17;17.60;67.90
19281;DHT22;9774;52.034;5.342;2023-10-19T03:48:51;17.60;67.90
19281;DHT22;9774;52.034;5.342;2023-10-19T03:51:18;17.60;68.60
19281;DHT22;9774;52.034;5.342;2023-10-19T03:53:50;17.70;67.90
19281;DHT22;9774;52.034;5.342;2023-10-19T03:56:20;17.70;67.90
19281;DHT22;9774;52.034;5.342;2023-10-19T03:58:49;17.70;67.90
19281;DHT22;9774;52.034;5.342;2023-10-19T04:01:16;17.70;67.90
19281;DHT22;9774;52.034;5.342;2023-10-19T04:03:45;17.70;67.80
19281;DHT22;9774;52.034;5.342;2023-10-19T04:06:14;17.80;67.90
19281;DHT22;9774;52.034;5.342;2023-10-19T04:08:41;17.80;67.90
19281;DHT22;9774;52.034;5.342;2023-10-19T04:11:10;17.80;68.00
19281;DHT22;9774;52.034;5.342;2023-10-19T04:13:47;17.80;68.00
19281;DHT22;9774;52.034;5.342;2023-10-19T04:16:19;17.80;68.10
19281;DHT22;9774;52.034;5.342;2023-10-19T04:18:47;17.80;68.10
19281;DHT22;9774;52.034;5.342;2023-10-19T04:21:16;17.90;68.20
19281;DHT22;9774;52.034;5.342;2023-10-19T04:23:43;17.90;68.20
19281;DHT22;9774;52.034;5.342;2023-10-19T04:26:12;17.90;68.20
19281;DHT22;9774;52.034;5.342;2023-10-19T04:28:41;17.90;68.10
19281;DHT22;9774;52.034;5.342;2023-10-19T04:31:17;17.90;67.90
19281;DHT22;9774;52.034;5.342;2023-10-19T04:33:45;17.90;67.90
19281;DHT22;9774;52.034;5.342;2023-10-19T04:36:14;17.90;67.80
19281;DHT22;9774;52.034;5.342;2023-10-19T04:38:45;17.90;67.70
19281;DHT22;9774;52.034;5.342;2023-10-19T04:41:12;17.90;67.50
19281;DHT22;9774;52.034;5.342;2023-10-19T04:43:40;17.90;67.50
19281;DHT22;9774;52.034;5.342;2023-10-19T04:46:14;17.90;67.40
19281;DHT22;9774;52.034;5.342;2023-10-19T04:48:44;17.90;67.40
19281;DHT22;9774;52.034;5.342;2023-10-19T04:51:11;17.90;67.30
19281;DHT22;9774;52.034;5.342;2023-10-19T04:53:39;17.80;67.30
19281;DHT22;9774;52.034;5.342;2023-10-19T04:56:07;17.80;67.30
19281;DHT22;9774;52.034;5.342;2023-10-19T04:58:35;17.80;67.40
19281;DHT22;9774;52.034;5.342;2023-10-19T05:01:03;17.80;67.40
19281;DHT22;9774;52.034;5.342;2023-10-19T05:03:31;17.80;67.40
19281;DHT22;9774;52.034;5.342;2023-10-19T05:05:58;17.80;67.50
19281;DHT22;9774;52.034;5.342;2023-10-19T05:08:25;17.80;67.50
19281;DHT22;9774;52.034;5.342;2023-10-19T05:10:55;17.80;67.60
19281;DHT22;9774;52.034;5.342;2023-10-19T05:13:25;17.80;67.70
19281;DHT22;9774;52.034;5.342;2023-10-19T05:15:52;17.80;67.70
19281;DHT22;9774;52.034;5.342;2023-10-19T05:18:20;17.80;67.70
19281;DHT22;9774;52.034;5.342;2023-10-19T05:20:48;17.80;67.80
19281;DHT22;9774;52.034;5.342;2023-10-19T05:23:21;17.80;67.80
19281;DHT22;9774;52.034;5.342;2023-10-19T05:25:49;17.80;67.80
19281;DHT22;9774;52.034;5.342;2023-10-19T05:28:19;17.80;67.80
19281;DHT22;9774;52.034;5.342;2023-10-19T05:30:47;17.90;68.00
19281;DHT22;9774;52.034;5.342;2023-10-19T05:33:15;17.90;68.70
19281;DHT22;9774;52.034;5.342;2023-10-19T05:35:46;17.90;68.00
19281;DHT22;9774;52.034;5.342;2023-10-19T05:38:13;17.90;68.00
19281;DHT22;9774;52.034;5.342;2023-10-19T05:40:40;17.90;68.00
19281;DHT22;9774;52.034;5.342;2023-10-19T05:43:08;17.90;68.00
19281;DHT22;9774;52.034;5.342;2023-10-19T05:45:37;17.90;68.10
19281;DHT22;9774;52.034;5.342;2023-10-19T05:48:05;18.00;68.10
19281;DHT22;9774;52.034;5.342;2023-10-19T05:50:33;18.00;68.10
19281;DHT22;9774;52.034;5.342;2023-10-19T05:53:00;18.00;68.10
19281;DHT22;9774;52.034;5.342;2023-10-19T05:55:27;18.00;68.10
19281;DHT22;9774;52.034;5.342;2023-10-19T05:57:54;18.00;68.10
19281;DHT22;9774;52.034;5.342;2023-10-19T06:00:21;18.00;68.00
19281;DHT22;9774;52.034;5.342;2023-10-19T06:02:52;18.00;68.00
19281;DHT22;9774;52.034;5.342;2023-10-19T06:05:20;17.90;69.70
19281;DHT22;9774;52.034;5.342;2023-10-19T06:07:48;18.00;70.20
19281;DHT22;9774;52.034;5.342;2023-10-19T06:10:19;18.00;69.40
19281;DHT22;9774;52.034;5.342;2023-10-19T06:12:49;18.00;69.20
19281;DHT22;9774;52.034;5.342;2023-10-19T06:15:19;18.10;68.90
19281;DHT22;9774;52.034;5.342;2023-10-19T06:17:49;18.20;68.70
19281;DHT22;9774;52.034;5.342;2023-10-19T06:20:18;18.20;68.50
19281;DHT22;9774;52.034;5.342;2023-10-19T06:22:52;18.20;68.30
19281;DHT22;9774;52.034;5.342;2023-10-19T06:25:22;18.20;68.30
19281;DHT22;9774;52.034;5.342;2023-10-19T06:27:52;18.20;68.10
19281;DHT22;9774;52.034;5.342;2023-10-19T06:30:22;18.20;68.10
19281;DHT22;9774;52.034;5.342;2023-10-19T06:32:51;18.20;68.10
19281;DHT22;9774;52.034;5.342;2023-10-19T06:35:21;18.20;68.10
19281;DHT22;9774;52.034;5.342;2023-10-19T06:37:49;18.20;68.10
19281;DHT22;9774;52.034;5.342;2023-10-19T06:40:16;18.20;68.00
19281;DHT22;9774;52.034;5.342;2023-10-19T06:42:44;18.20;68.00
19281;DHT22;9774;52.034;5.342;2023-10-19T06:45:11;18.20;68.00
19281;DHT22;9774;52.034;5.342;2023-10-19T06:47:41;18.20;68.00
19281;DHT22;9774;52.034;5.342;2023-10-19T06:50:10;18.20;68.00
19281;DHT22;9774;52.034;5.342;2023-10-19T06:52:40;18.20;68.00
19281;DHT22;9774;52.034;5.342;2023-10-19T06:55:09;18.20;68.00
19281;DHT22;9774;52.034;5.342;2023-10-19T06:57:39;18.20;68.10
19281;DHT22;9774;52.034;5.342;2023-10-19T07:00:09;18.20;68.10
19281;DHT22;9774;52.034;5.342;2023-10-19T07:02:40;18.20;68.20
19281;DHT22;9774;52.034;5.342;2023-10-19T07:05:09;18.20;68.30
19281;DHT22;9774;52.034;5.342;2023-10-19T07:07:39;18.20;68.20
19281;DHT22;9774;52.034;5.342;2023-10-19T07:10:08;18.20;68.30
19281;DHT22;9774;52.034;5.342;2023-10-19T07:12:37;18.20;68.30
19281;DHT22;9774;52.034;5.342;2023-10-19T07:15:08;18.20;68.30
19281;DHT22;9774;52.034;5.342;2023-10-19T07:17:39;18.20;68.30
19281;DHT22;9774;52.034;5.342;2023-10-19T07:20:07;18.20;68.40
19281;DHT22;9774;52.034;5.342;2023-10-19T07:22:48;18.20;68.40
19281;DHT22;9774;52.034;5.342;2023-10-19T07:25:15;18.30;68.50
19281;DHT22;9774;52.034;5.342;2023-10-19T07:27:46;18.30;68.50
19281;DHT22;9774;52.034;5.342;2023-10-19T07:30:13;18.30;68.50
19281;DHT22;9774;52.034;5.342;2023-10-19T07:32:46;18.30;68.60
19281;DHT22;9774;52.034;5.342;2023-10-19T07:35:17;18.30;68.60
19281;DHT22;9774;52.034;5.342;2023-10-19T07:37:45;18.40;68.60
19281;DHT22;9774;52.034;5.342;2023-10-19T07:40:15;18.30;68.70
19281;DHT22;9774;52.034;5.342;2023-10-19T07:42:43;18.40;68.80
19281;DHT22;9774;52.034;5.342;2023-10-19T07:45:10;18.40;68.80
19281;DHT22;9774;52.034;5.342;2023-10-19T07:47:38;18.40;68.70
19281;DHT22;9774;52.034;5.342;2023-10-19T07:50:07;18.40;68.80
19281;DHT22;9774;52.034;5.342;2023-10-19T07:52:38;18.50;68.80
19281;DHT22;9774;52.034;5.342;2023-10-19T07:55:06;18.50;68.80
19281;DHT22;9774;52.034;5.342;2023-10-19T07:57:35;18.50;68.80
19281;DHT22;9774;52.034;5.342;2023-10-19T08:00:03;18.50;68.80
19281;DHT22;9774;52.034;5.342;2023-10-19T08:02:30;18.50;68.70
19281;DHT22;9774;52.034;5.342;2023-10-19T08:04:59;18.60;68.80
19281;DHT22;9774;52.034;5.342;2023-10-19T08:07:28;18.60;68.80
19281;DHT22;9774;52.034;5.342;2023-10-19T08:09:55;18.60;68.80
19281;DHT22;9774;52.034;5.342;2023-10-19T08:12:25;18.60;68.90
19281;DHT22;9774;52.034;5.342;2023-10-19T08:14:54;18.70;68.90
19281;DHT22;9774;52.034;5.342;2023-10-19T08:17:22;18.70;68.90
19281;DHT22;9774;52.034;5.342;2023-10-19T08:19:49;18.70;68.90
19281;DHT22;9774;52.034;5.342;2023-10-19T08:22:16;18.80;69.00
19281;DHT22;9774;52.034;5.342;2023-10-19T08:24:43;18.80;69.00
19281;DHT22;9774;52.034;5.342;2023-10-19T08:27:11;18.80;69.00
19281;DHT22;9774;52.034;5.342;2023-10-19T08:29:38;18.80;69.00
19281;DHT22;9774;52.034;5.342;2023-10-19T08:32:07;18.90;69.10
19281;DHT22;9774;52.034;5.342;2023-10-19T08:34:34;18.90;69.10
19281;DHT22;9774;52.034;5.342;2023-10-19T08:37:02;18.90;69.00
19281;DHT22;9774;52.034;5.342;2023-10-19T08:39:30;18.90;69.00
19281;DHT22;9774;52.034;5.342;2023-10-19T08:42:02;19.00;69.10
19281;DHT22;9774;52.034;5.342;2023-10-19T08:44:29;19.00;69.10
19281;DHT22;9774;52.034;5.342;2023-10-19T08:46:57;19.00;69.10
19281;DHT22;9774;52.034;5.342;2023-10-19T08:49:26;19.10;69.10
19281;DHT22;9774;52.034;5.342;2023-10-19T08:51:54;19.20;69.30
19281;DHT22;9774;52.034;5.342;2023-10-19T08:54:21;19.10;69.10
19281;DHT22;9774;52.034;5.342;2023-10-19T08:56:48;19.20;69.20
19281;DHT22;9774;52.034;5.342;2023-10-19T08:59:15;19.20;69.10
19281;DHT22;9774;52.034;5.342;2023-10-19T09:01:42;19.30;69.20
19281;DHT22;9774;52.034;5.342;2023-10-19T09:04:10;19.30;69.10
19281;DHT22;9774;52.034;5.342;2023-10-19T09:06:40;19.30;69.20
19281;DHT22;9774;52.034;5.342;2023-10-19T09:09:08;19.40;69.40
19281;DHT22;9774;52.034;5.342;2023-10-19T09:11:42;19.40;69.40
19281;DHT22;9774;52.034;5.342;2023-10-19T09:14:09;19.50;69.50
19281;DHT22;9774;52.034;5.342;2023-10-19T09:16:38;19.60;69.70
19281;DHT22;9774;52.034;5.342;2023-10-19T09:19:05;19.70;69.70
19281;DHT22;9774;52.034;5.342;2023-10-19T09:21:34;19.70;69.60
19281;DHT22;9774;52.034;5.342;2023-10-19T09:24:02;19.80;69.60
19281;DHT22;9774;52.034;5.342;2023-10-19T09:26:30;19.80;69.40
19281;DHT22;9774;52.034;5.342;2023-10-19T09:28:57;19.90;69.30
19281;DHT22;9774;52.034;5.342;2023-10-19T09:31:25;20.00;69.10
19281;DHT22;9774;52.034;5.342;2023-10-19T09:33:52;20.00;68.90
19281;DHT22;9774;52.034;5.342;2023-10-19T09:36:21;20.10;69.00
19281;DHT22;9774;52.034;5.342;2023-10-19T09:38:52;20.10;69.10
19281;DHT22;9774;52.034;5.342;2023-10-19T09:41:21;20.20;69.10
19281;DHT22;9774;52.034;5.342;2023-10-19T09:43:57;20.20;69.00
19281;DHT22;9774;52.034;5.342;2023-10-19T09:46:27;20.30;69.00
19281;DHT22;9774;52.034;5.342;2023-10-19T09:48:58;20.30;69.00
19281;DHT22;9774;52.034;5.342;2023-10-19T09:51:26;20.40;69.10
19281;DHT22;9774;52.034;5.342;2023-10-19T09:53:58;20.50;69.00
19281;DHT22;9774;52.034;5.342;2023-10-19T09:56:35;20.50;69.00
19281;DHT22;9774;52.034;5.342;2023-10-19T09:59:06;20.60;69.00
19281;DHT22;9774;52.034;5.342;2023-10-19T10:02:08;20.60;68.80
19281;DHT22;9774;52.034;5.342;2023-10-19T10:04:38;20.70;68.80
19281;DHT22;9774;52.034;5.342;2023-10-19T10:07:07;20.80;69.20
19281;DHT22;9774;52.034;5.342;2023-10-19T10:09:36;20.80;68.30
19281;DHT22;9774;52.034;5.342;2023-10-19T10:12:21;20.90;68.20
19281;DHT22;9774;52.034;5.342;2023-10-19T10:14:56;20.90;68.10
19281;DHT22;9774;52.034;5.342;2023-10-19T10:17:25;20.90;68.00
19281;DHT22;9774;52.034;5.342;2023-10-19T10:20:07;21.00;67.90
19281;DHT22;9774;52.034;5.342;2023-10-19T10:23:19;21.00;68.00
19281;DHT22;9774;52.034;5.342;2023-10-19T10:25:52;21.10;68.00
19281;DHT22;9774;52.034;5.342;2023-10-19T10:28:21;21.10;67.80
19281;DHT22;9774;52.034;5.342;2023-10-19T10:31:09;21.10;67.90
19281;DHT22;9774;52.034;5.342;2023-10-19T10:33:40;21.10;68.10
19281;DHT22;9774;52.034;5.342;2023-10-19T10:36:10;21.20;68.00
19281;DHT22;9774;52.034;5.342;2023-10-19T10:38:38;21.20;67.90
19281;DHT22;9774;52.034;5.342;2023-10-19T10:41:06;21.20;67.90
19281;DHT22;9774;52.034;5.342;2023-10-19T10:43:52;21.30;67.80
19281;DHT22;9774;52.034;5.342;2023-10-19T10:46:21;21.30;67.60
19281;DHT22;9774;52.034;5.342;2023-10-19T10:48:48;21.30;67.50
19281;DHT22;9774;52.034;5.342;2023-10-19T10:51:18;21.30;67.50
19281;DHT22;9774;52.034;5.342;2023-10-19T10:53:47;21.30;67.50
19281;DHT22;9774;52.034;5.342;2023-10-19T10:56:15;21.40;67.40
19281;DHT22;9774;52.034;5.342;2023-10-19T10:58:43;21.40;67.40
19281;DHT22;9774;52.034;5.342;2023-10-19T11:01:11;21.40;67.40
19281;DHT22;9774;52.034;5.342;2023-10-19T11:03:39;21.40;67.40
19281;DHT22;9774;52.034;5.342;2023-10-19T11:06:07;21.40;67.50
19281;DHT22;9774;52.034;5.342;2023-10-19T11:08:36;21.50;67.70
19281;DHT22;9774;52.034;5.342;2023-10-19T11:11:05;21.50;67.90
19281;DHT22;9774;52.034;5.342;2023-10-19T11:13:36;21.60;67.90
19281;DHT22;9774;52.034;5.342;2023-10-19T11:16:05;21.70;68.00
19281;DHT22;9774;52.034;5.342;2023-10-19T11:18:35;21.70;68.10
19281;DHT22;9774;52.034;5.342;2023-10-19T11:21:06;21.80;67.90
19281;DHT22;9774;52.034;5.342;2023-10-19T11:23:37;21.90;67.80
19281;DHT22;9774;52.034;5.342;2023-10-19T11:26:04;22.00;67.50
19281;DHT22;9774;52.034;5.342;2023-10-19T11:28:31;22.10;67.30
19281;DHT22;9774;52.034;5.342;2023-10-19T11:31:11;22.20;67.30
19281;DHT22;9774;52.034;5.342;2023-10-19T11:33:41;22.20;67.00
19281;DHT22;9774;52.034;5.342;2023-10-19T11:36:09;22.30;67.10
19281;DHT22;9774;52.034;5.342;2023-10-19T11:38:39;22.40;67.20
19281;DHT22;9774;52.034;5.342;2023-10-19T11:41:07;22.50;67.40
19281;DHT22;9774;52.034;5.342;2023-10-19T11:43:34;22.60;67.40
19281;DHT22;9774;52.034;5.342;2023-10-19T11:46:01;22.70;67.30
19281;DHT22;9774;52.034;5.342;2023-10-19T11:48:30;22.80;66.90
19281;DHT22;9774;52.034;5.342;2023-10-19T11:50:59;22.90;66.40
19281;DHT22;9774;52.034;5.342;2023-10-19T11:53:31;22.90;66.00
19281;DHT22;9774;52.034;5.342;2023-10-19T11:56:00;23.00;65.90
19281;DHT22;9774;52.034;5.342;2023-10-19T11:58:29;22.90;65.60
19281;DHT22;9774;52.034;5.342;2023-10-19T12:00:58;23.00;65.40
19281;DHT22;9774;52.034;5.342;2023-10-19T12:03:25;22.90;65.20
19281;DHT22;9774;52.034;5.342;2023-10-19T12:05:53;22.90;65.20
19281;DHT22;9774;52.034;5.342;2023-10-19T12:08:22;22.90;65.00
19281;DHT22;9774;52.034;5.342;2023-10-19T12:10:50;22.90;64.90
19281;DHT22;9774;52.034;5.342;2023-10-19T12:13:17;22.90;64.80
19281;DHT22;9774;52.034;5.342;2023-10-19T12:15:44;22.90;64.90
19281;DHT22;9774;52.034;5.342;2023-10-19T12:18:17;22.80;64.70
19281;DHT22;9774;52.034;5.342;2023-10-19T12:20:45;22.80;64.70
19281;DHT22;9774;52.034;5.342;2023-10-19T12:23:13;22.80;64.70
19281;DHT22;9774;52.034;5.342;2023-10-19T12:25:42;22.70;64.60
19281;DHT22;9774;52.034;5.342;2023-10-19T12:28:09;22.70;64.70
19281;DHT22;9774;52.034;5.342;2023-10-19T12:30:42;22.70;64.70
19281;DHT22;9774;52.034;5.342;2023-10-19T12:33:09;22.70;64.70
19281;DHT22;9774;52.034;5.342;2023-10-19T12:35:39;22.60;64.70
19281;DHT22;9774;52.034;5.342;2023-10-19T12:38:13;22.60;64.70
19281;DHT22;9774;52.034;5.342;2023-10-19T12:40:46;22.60;64.60
19281;DHT22;9774;52.034;5.342;2023-10-19T12:43:14;22.60;64.60
19281;DHT22;9774;52.034;5.342;2023-10-19T12:45:44;22.50;64.60
19281;DHT22;9774;52.034;5.342;2023-10-19T12:48:16;22.50;64.70
19281;DHT22;9774;52.034;5.342;2023-10-19T12:50:44;22.40;64.60
19281;DHT22;9774;52.034;5.342;2023-10-19T12:53:11;22.40;64.60
19281;DHT22;9774;52.034;5.342;2023-10-19T12:55:39;22.40;64.60
19281;DHT22;9774;52.034;5.342;2023-10-19T12:58:10;22.40;64.60
19281;DHT22;9774;52.034;5.342;2023-10-19T13:00:40;22.30;64.50
19281;DHT22;9774;52.034;5.342;2023-10-19T13:03:09;22.20;64.50
19281;DHT22;9774;52.034;5.342;2023-10-19T13:05:40;22.20;64.50
19281;DHT22;9774;52.034;5.342;2023-10-19T13:08:09;22.20;64.60
19281;DHT22;9774;52.034;5.342;2023-10-19T13:10:39;22.10;64.60
19281;DHT22;9774;52.034;5.342;2023-10-19T13:13:09;22.10;64.70
19281;DHT22;9774;52.034;5.342;2023-10-19T13:15:39;22.00;64.80
19281;DHT22;9774;52.034;5.342;2023-10-19T13:18:08;22.00;64.80
19281;DHT22;9774;52.034;5.342;2023-10-19T13:20:37;22.00;65.00
19281;DHT22;9774;52.034;5.342;2023-10-19T13:23:05;21.90;65.20
19281;DHT22;9774;52.034;5.342;2023-10-19T13:25:38;21.90;65.30
19281;DHT22;9774;52.034;5.342;2023-10-19T13:28:08;21.80;65.40
19281;DHT22;9774;52.034;5.342;2023-10-19T13:30:39;21.80;65.50
19281;DHT22;9774;52.034;5.342;2023-10-19T13:33:07;21.80;65.60
19281;DHT22;9774;52.034;5.342;2023-10-19T13:35:36;21.70;65.60
19281;DHT22;9774;52.034;5.342;2023-10-19T13:38:05;21.70;65.70
19281;DHT22;9774;52.034;5.342;2023-10-19T13:40:33;21.70;65.70
19281;DHT22;9774;52.034;5.342;2023-10-19T13:43:01;21.70;65.80
19281;DHT22;9774;52.034;5.342;2023-10-19T13:45:33;21.60;65.90
19281;DHT22;9774;52.034;5.342;2023-10-19T13:48:01;21.60;66.00
19281;DHT22;9774;52.034;5.342;2023-10-19T13:50:29;21.60;66.10
19281;DHT22;9774;52.034;5.342;2023-10-19T13:52:57;21.60;66.20
19281;DHT22;9774;52.034;5.342;2023-10-19T13:55:25;21.60;66.40
19281;DHT22;9774;52.034;5.342;2023-10-19T13:57:54;21.50;66.50
19281;DHT22;9774;52.034;5.342;2023-10-19T14:00:23;21.60;66.60
19281;DHT22;9774;52.034;5.342;2023-10-19T14:02:57;21.60;66.70
19281;DHT22;9774;52.034;5.342;2023-10-19T14:05:24;21.60;66.60
19281;DHT22;9774;52.034;5.342;2023-10-19T14:07:51;21.60;66.50
19281;DHT22;9774;52.034;5.342;2023-10-19T14:10:19;21.60;66.40
19281;DHT22;9774;52.034;5.342;2023-10-19T14:12:48;21.50;66.40
19281;DHT22;9774;52.034;5.342;2023-10-19T14:15:16;21.50;66.40
19281;DHT22;9774;52.034;5.342;2023-10-19T14:17:45;21.50;66.60
19281;DHT22;9774;52.034;5.342;2023-10-19T14:20:16;21.50;66.60
19281;DHT22;9774;52.034;5.342;2023-10-19T14:22:47;21.50;66.60
19281;DHT22;9774;52.034;5.342;2023-10-19T14:25:16;21.40;66.60
19281;DHT22;9774;52.034;5.342;2023-10-19T14:27:46;21.40;66.60
19281;DHT22;9774;52.034;5.342;2023-10-19T14:30:16;21.40;66.60
19281;DHT22;9774;52.034;5.342;2023-10-19T14:32:45;21.40;66.70
19281;DHT22;9774;52.034;5.342;2023-10-19T14:35:15;21.40;66.70
19281;DHT22;9774;52.034;5.342;2023-10-19T14:37:44;21.30;66.70
19281;DHT22;9774;52.034;5.342;2023-10-19T14:40:15;21.30;66.70
19281;DHT22;9774;52.034;5.342;2023-10-19T14:42:43;21.20;67.40
19281;DHT22;9774;52.034;5.342;2023-10-19T14:45:11;21.20;66.80
19281;DHT22;9774;52.034;5.342;2023-10-19T14:47:44;21.20;66.80
19281;DHT22;9774;52.034;5.342;2023-10-19T14:50:15;21.20;66.80
19281;DHT22;9774;52.034;5.342;2023-10-19T14:52:44;21.20;66.90
19281;DHT22;9774;52.034;5.342;2023-10-19T14:55:13;21.20;66.90
19281;DHT22;9774;52.034;5.342;2023-10-19T14:57:42;21.10;67.00
19281;DHT22;9774;52.034;5.342;2023-10-19T15:00:11;21.10;67.00
19281;DHT22;9774;52.034;5.342;2023-10-19T15:02:42;21.10;67.00
19281;DHT22;9774;52.034;5.342;2023-10-19T15:05:10;21.00;67.10
19281;DHT22;9774;52.034;5.342;2023-10-19T15:07:41;21.10;67.20
19281;DHT22;9774;52.034;5.342;2023-10-19T15:10:10;21.00;67.20
19281;DHT22;9774;52.034;5.342;2023-10-19T15:12:39;21.00;67.20
19281;DHT22;9774;52.034;5.342;2023-10-19T15:15:07;21.00;68.00
19281;DHT22;9774;52.034;5.342;2023-10-19T15:17:34;20.90;67.30
19281;DHT22;9774;52.034;5.342;2023-10-19T15:20:04;20.90;67.40
19281;DHT22;9774;52.034;5.342;2023-10-19T15:22:34;20.90;67.50
19281;DHT22;9774;52.034;5.342;2023-10-19T15:25:03;20.90;67.50
19281;DHT22;9774;52.034;5.342;2023-10-19T15:27:33;20.80;67.50
19281;DHT22;9774;52.034;5.342;2023-10-19T15:30:00;20.80;67.60
19281;DHT22;9774;52.034;5.342;2023-10-19T15:32:28;20.80;67.70
19281;DHT22;9774;52.034;5.342;2023-10-19T15:34:56;20.80;67.80
19281;DHT22;9774;52.034;5.342;2023-10-19T15:37:23;20.80;67.90
19281;DHT22;9774;52.034;5.342;2023-10-19T15:39:50;20.80;67.90
19281;DHT22;9774;52.034;5.342;2023-10-19T15:42:20;20.80;68.00
19281;DHT22;9774;52.034;5.342;2023-10-19T15:44:50;20.80;68.20
19281;DHT22;9774;52.034;5.342;2023-10-19T15:47:17;20.80;68.20
19281;DHT22;9774;52.034;5.342;2023-10-19T15:49:48;20.80;68.30
19281;DHT22;9774;52.034;5.342;2023-10-19T15:52:19;20.90;68.30
19281;DHT22;9774;52.034;5.342;2023-10-19T15:54:47;20.90;68.20
19281;DHT22;9774;52.034;5.342;2023-10-19T15:57:18;20.90;68.20
19281;DHT22;9774;52.034;5.342;2023-10-19T15:59:46;20.90;68.10